Time;durP1;ratioP1;P1;durP2;ratioP2;P2;SDS_P1;SDS_P2;PMS_P1;PMS_P2;Temp;Humidity;BMP_temperature;BMP_pressure;BME280_temperature;BME280_humidity;BME280_pressure;Samples;Min_cycle;Max_cycle;Signal;HPM_P1;HPM_P2
2023/08/02 00:00:21;;;;;;;11.27;10.03;;;;;;;-141.97;56.86;47672.84;5059263;28;20256;-83
2023/08/02 00:02:46;;;;;;;12.30;10.60;;;;;;;-141.97;57.02;47396.06;5070332;28;20168;-82
2023/08/02 00:05:11;;;;;;;12.53;10.53;;;;;;;-141.97;57.23;47526.75;5052107;28;20190;-84
2023/08/02 00:07:37;;;;;;;13.17;10.27;;;;;;;-141.97;57.09;47407.59;5052273;28;20258;-83
2023/08/02 00:10:03;;;;;;;12.20;10.90;;;;;;;-141.97;56.91;47413.38;5052132;28;20542;-83
2023/08/02 00:12:29;;;;;;;13.37;10.60;;;;;;;-141.97;57.21;47434.50;5070380;28;20235;-83
2023/08/02 00:14:54;;;;;;;11.43;10.23;;;;;;;-141.97;57.36;47278.84;5073220;28;20609;-83
2023/08/02 00:17:20;;;;;;;11.67;10.43;;;;;;;-141.97;57.30;47286.53;5074461;28;20165;-83
2023/08/02 00:19:45;;;;;;;12.23;10.90;;;;;;;-141.97;57.42;47267.31;5066887;28;20175;-83
2023/08/02 00:22:10;;;;;;;11.40;10.20;;;;;;;-141.97;57.49;47469.09;5086750;28;20234;-83
2023/08/02 00:24:36;;;;;;;11.57;10.40;;;;;;;-141.97;57.75;47211.56;5064442;28;20203;-84
2023/08/02 00:27:01;;;;;;;12.30;10.63;;;;;;;-141.97;58.62;47584.44;5072685;28;20528;-82
2023/08/02 00:29:27;;;;;;;12.53;10.27;;;;;;;-141.97;58.90;47465.25;5069004;28;20201;-84
2023/08/02 00:31:52;;;;;;;11.87;10.30;;;;;;;-141.97;59.03;47453.72;5053770;28;20169;-83
2023/08/02 00:34:17;;;;;;;11.30;10.17;;;;;;;-141.97;59.22;47576.75;5068833;28;20231;-83
2023/08/02 00:36:43;;;;;;;11.83;10.43;;;;;;;-141.97;59.22;47436.44;5074362;28;20183;-83
2023/08/02 00:39:09;;;;;;;12.90;11.03;;;;;;;-141.97;59.28;47532.53;5074500;28;20247;-83
2023/08/02 00:41:34;;;;;;;11.33;10.13;;;;;;;-141.97;59.24;47509.47;5079814;28;20183;-81
2023/08/02 00:44:00;;;;;;;13.07;10.40;;;;;;;-141.97;59.33;47595.97;5075835;28;20341;-83
2023/08/02 00:46:27;;;;;;;13.60;10.40;;;;;;;-141.97;59.34;47367.25;5074047;28;20302;-83
2023/08/02 00:48:52;;;;;;;12.53;10.03;;;;;;;-141.97;59.32;47263.47;5073725;28;20211;-83
2023/08/02 00:51:19;;;;;;;11.90;10.23;;;;;;;-141.97;59.19;47474.88;5074088;28;20161;-83
2023/08/02 00:53:46;;;;;;;12.00;10.07;;;;;;;-141.97;59.96;47661.31;5055244;28;20279;-83
2023/08/02 00:56:13;;;;;;;11.10;10.00;;;;;;;-141.97;59.94;47323.03;5073664;28;20164;-84
2023/08/02 00:58:39;;;;;;;13.13;10.67;;;;;;;-141.97;59.91;47432.59;5057600;28;20193;-83
2023/08/02 01:01:07;;;;;;;12.93;10.60;;;;;;;-141.97;59.69;47440.28;5053486;28;20542;-84
2023/08/02 01:03:37;;;;;;;12.13;10.50;;;;;;;-141.97;59.60;47509.47;5060583;28;20260;-83
2023/08/02 01:06:28;;;;;;;12.30;10.13;;;;;;;-141.97;59.42;47426.81;5055292;28;20259;-83
2023/08/02 01:09:01;;;;;;;11.60;10.40;;;;;;;-141.97;59.31;47428.75;5055396;28;20272;-83
2023/08/02 01:11:31;;;;;;;12.10;10.67;;;;;;;-141.97;59.44;47453.72;5073257;28;20252;-83
2023/08/02 01:13:57;;;;;;;13.90;10.40;;;;;;;-141.97;59.69;47592.13;5088408;28;20251;-83
2023/08/02 01:16:24;;;;;;;11.93;10.50;;;;;;;-141.97;59.81;47411.44;5076018;28;20207;-83
2023/08/02 01:18:50;;;;;;;12.47;11.17;;;;;;;-141.97;59.66;47380.69;5077327;28;20175;-82
2023/08/02 01:21:15;;;;;;;13.00;10.90;;;;;;;-141.97;59.73;47465.25;5062425;28;20306;-82
2023/08/02 01:23:41;;;;;;;13.10;10.73;;;;;;;-141.97;59.71;47422.97;5077785;28;20252;-82
2023/08/02 01:26:07;;;;;;;14.00;10.80;;;;;;;-141.97;60.53;47299.97;5054814;28;20612;-82
2023/08/02 01:28:38;;;;;;;14.30;11.00;;;;;;;-141.97;60.61;47344.19;5072786;28;20971;-83
2023/08/02 01:31:04;;;;;;;14.67;10.63;;;;;;;-141.97;61.10;47403.75;5061678;28;20622;-83
2023/08/02 01:33:35;;;;;;;14.43;11.20;;;;;;;-141.97;61.27;47280.75;5053268;28;20165;-83
2023/08/02 01:36:01;;;;;;;12.97;10.87;;;;;;;-141.97;61.07;47438.34;5052857;28;20162;-83
2023/08/02 01:38:27;;;;;;;14.80;11.77;;;;;;;-141.97;60.96;47471.03;5067954;28;20231;-83
2023/08/02 01:40:52;;;;;;;13.47;11.20;;;;;;;-141.97;61.24;47480.63;5054993;28;20632;-83
2023/08/02 01:43:18;;;;;;;16.47;12.03;;;;;;;-141.97;61.25;47380.69;5045382;28;20311;-83
2023/08/02 01:45:43;;;;;;;15.73;11.43;;;;;;;-141.97;61.48;47697.84;5073145;28;20165;-83
2023/08/02 01:48:09;;;;;;;13.97;11.63;;;;;;;-141.97;61.37;47542.16;5054271;28;20298;-84
2023/08/02 01:50:34;;;;;;;13.30;11.70;;;;;;;-141.97;61.36;47296.13;5072464;28;21117;-82
2023/08/02 01:52:59;;;;;;;14.40;11.40;;;;;;;-141.97;61.84;47622.88;5072969;28;20217;-83
2023/08/02 01:55:25;;;;;;;18.10;13.83;;;;;;;-141.97;61.71;47330.72;5087753;28;20249;-83
2023/08/02 01:57:50;;;;;;;17.10;12.73;;;;;;;-141.97;61.97;47471.03;5071495;28;20641;-83
2023/08/02 02:00:16;;;;;;;13.47;11.43;;;;;;;-141.97;62.07;47640.16;5053827;28;20171;-83
2023/08/02 02:02:41;;;;;;;15.13;11.10;;;;;;;-141.97;62.33;47419.13;5072634;28;20176;-83
2023/08/02 02:05:07;;;;;;;15.13;11.17;;;;;;;-141.97;62.58;47253.84;5054292;28;20208;-82
2023/08/02 02:07:33;;;;;;;12.80;10.90;;;;;;;-141.97;62.77;47357.63;5072067;28;20164;-82
2023/08/02 02:09:58;;;;;;;13.43;10.40;;;;;;;-141.97;63.28;47326.88;5054056;28;20193;-83
2023/08/02 02:12:23;;;;;;;11.93;10.73;;;;;;;-141.97;63.80;47315.34;5072269;28;20186;-83
2023/08/02 02:14:49;;;;;;;15.23;12.10;;;;;;;-141.97;63.73;47642.09;5054086;28;20231;-82
2023/08/02 02:17:14;;;;;;;16.23;12.10;;;;;;;-141.97;63.36;47655.53;5053600;28;20195;-82
2023/08/02 02:19:39;;;;;;;15.67;11.13;;;;;;;-141.97;63.34;47317.28;5087597;28;20238;-82
2023/08/02 02:22:06;;;;;;;14.93;11.23;;;;;;;-141.97;63.07;47469.09;5053222;28;20260;-83
2023/08/02 02:24:31;;;;;;;16.37;11.97;;;;;;;-141.97;63.11;47553.69;5071276;28;20597;-83
2023/08/02 02:26:56;;;;;;;16.47;12.07;;;;;;;-141.97;62.75;47697.84;5053607;28;20164;-83
2023/08/02 02:29:23;;;;;;;15.30;11.60;;;;;;;-141.97;62.75;47588.28;5071603;28;20212;-83
2023/08/02 02:31:48;;;;;;;20.57;13.07;;;;;;;-141.97;62.68;47261.53;5040860;28;20268;-83
2023/08/02 02:34:13;;;;;;;16.33;12.10;;;;;;;-141.97;62.67;47388.38;5064484;28;20619;-83
2023/08/02 02:36:39;;;;;;;20.60;12.57;;;;;;;-141.97;62.43;47353.78;5053492;28;20299;-83
2023/08/02 02:39:05;;;;;;;22.53;12.83;;;;;;;-141.97;62.47;47599.81;5071371;28;20310;-83
2023/08/02 02:41:30;;;;;;;19.50;13.73;;;;;;;-141.97;61.88;47434.50;5053169;28;20172;-83
2023/08/02 02:43:56;;;;;;;17.87;13.90;;;;;;;-141.97;62.41;47396.06;5060551;28;20247;-83
2023/08/02 02:46:21;;;;;;;18.57;13.60;;;;;;;-141.97;62.75;47499.84;5070907;28;20609;-83
2023/08/02 02:48:47;;;;;;;17.77;13.73;;;;;;;-141.97;62.84;47601.72;5070694;28;20152;-83
2023/08/02 02:51:12;;;;;;;16.60;12.50;;;;;;;-141.97;63.71;47665.16;5052785;28;20173;-83
2023/08/02 02:53:37;;;;;;;16.30;12.63;;;;;;;-141.97;64.32;47301.91;5052614;28;20555;-84
2023/08/02 02:56:03;;;;;;;15.30;13.17;;;;;;;-141.97;64.36;47407.59;5070739;28;20153;-83
2023/08/02 02:58:28;;;;;;;15.40;13.60;;;;;;;-141.97;64.76;47459.50;5055679;28;20169;-82
2023/08/02 03:00:56;;;;;;;19.50;16.17;;;;;;;-141.97;65.79;47565.22;5050413;28;20153;-82
2023/08/02 03:03:21;;;;;;;21.27;16.77;;;;;;;-141.97;68.12;47609.41;5031905;28;20177;-82
2023/08/02 03:05:47;;;;;;;21.40;16.93;;;;;;;-141.97;68.69;47494.09;5065998;28;20168;-83
2023/08/02 03:08:12;;;;;;;22.60;18.27;;;;;;;-141.97;69.57;47319.19;5054454;28;20181;-81
2023/08/02 03:10:37;;;;;;;25.67;18.10;;;;;;;-141.97;69.16;47446.03;5044549;28;20189;-84
2023/08/02 03:13:03;;;;;;;22.97;18.13;;;;;;;-141.97;68.79;47540.22;5056616;28;20662;-83
2023/08/02 03:15:28;;;;;;;26.63;19.20;;;;;;;-141.97;67.75;47467.19;5070361;28;20187;-83
2023/08/02 03:17:54;;;;;;;21.83;18.50;;;;;;;-141.97;67.71;47419.13;5052553;28;20168;-84
2023/08/02 03:20:19;;;;;;;22.33;18.00;;;;;;;-141.97;67.46;47421.06;5070700;28;20573;-82
2023/08/02 03:22:44;;;;;;;25.23;18.43;;;;;;;-141.97;67.08;47438.34;5070135;28;20234;-83
2023/08/02 03:25:10;;;;;;;24.67;19.63;;;;;;;-141.97;67.20;47476.78;5070023;28;20271;-82
2023/08/02 03:27:35;;;;;;;24.80;19.20;;;;;;;-141.97;67.14;47409.53;5051579;28;20268;-82
2023/08/02 03:30:01;;;;;;;25.93;18.83;;;;;;;-141.97;67.23;47488.31;5036545;28;20289;-83
2023/08/02 03:32:26;;;;;;;24.37;19.20;;;;;;;-141.97;67.30;47434.50;5049145;28;20215;-83
2023/08/02 03:34:51;;;;;;;28.43;21.67;;;;;;;-141.97;67.74;47603.66;5051979;28;20252;-83
2023/08/02 03:37:17;;;;;;;25.73;20.20;;;;;;;-141.97;67.31;47569.06;5031327;28;20667;-83
2023/08/02 03:39:42;;;;;;;21.20;17.73;;;;;;;-141.97;67.26;47292.28;5049130;28;20161;-83
2023/08/02 03:42:08;;;;;;;24.77;20.23;;;;;;;-141.97;67.12;47594.03;5049329;28;20180;-83
2023/08/02 03:44:33;;;;;;;27.87;20.40;;;;;;;-141.97;67.72;47474.88;5041767;28;20241;-85
2023/08/02 03:46:58;;;;;;;26.17;18.90;;;;;;;-141.97;67.29;47482.56;5031042;28;20169;-83
2023/08/02 03:49:24;;;;;;;27.33;19.67;;;;;;;-141.97;67.75;47469.09;5048351;28;20272;-83
2023/08/02 03:51:49;;;;;;;25.90;21.03;;;;;;;-141.97;67.56;47586.34;5030833;28;20216;-84
2023/08/02 03:54:15;;;;;;;29.13;23.07;;;;;;;-141.97;67.25;47501.78;5031439;28;20170;-83
2023/08/02 03:56:43;;;;;;;30.57;22.33;;;;;;;-141.97;67.64;47663.22;5049300;28;20197;-83
2023/08/02 03:59:08;;;;;;;27.87;22.80;;;;;;;-141.97;67.85;47403.75;5048939;28;20251;-83
2023/08/02 04:01:33;;;;;;;28.27;23.13;;;;;;;-141.97;67.58;47288.44;5031033;28;20264;-83
2023/08/02 04:03:59;;;;;;;34.43;23.57;;;;;;;-141.97;67.16;47663.22;5030943;28;20173;-83
2023/08/02 04:06:24;;;;;;;32.63;23.87;;;;;;;-141.97;67.15;47467.19;5049224;28;20193;-84
2023/08/02 04:08:49;;;;;;;28.70;22.47;;;;;;;-141.97;66.89;47480.63;5049387;28;20295;-83
2023/08/02 04:11:15;;;;;;;30.70;23.47;;;;;;;-141.97;66.54;47705.53;5049213;28;20625;-83
2023/08/02 04:13:40;;;;;;;30.80;23.23;;;;;;;-141.97;66.19;47684.38;5057360;28;20197;-83
2023/08/02 04:16:06;;;;;;;33.13;22.90;;;;;;;-141.97;66.54;47434.50;5063557;28;20179;-83
2023/08/02 04:18:31;;;;;;;33.80;23.00;;;;;;;-141.97;67.16;47549.84;5068888;28;20197;-83
2023/08/02 04:20:59;;;;;;;31.57;23.80;;;;;;;-141.97;66.84;47447.97;5057606;28;20173;-83
2023/08/02 04:23:26;;;;;;;29.63;22.80;;;;;;;-141.97;66.51;47645.94;5049394;28;20227;-82
2023/08/02 04:25:51;;;;;;;28.80;22.20;;;;;;;-141.97;66.33;47447.97;5049553;28;20200;-83
2023/08/02 04:28:17;;;;;;;28.23;21.93;;;;;;;-141.97;65.90;47253.84;5049185;28;20667;-83
2023/08/02 04:30:42;;;;;;;30.73;21.80;;;;;;;-141.97;66.74;47449.88;5048200;28;20231;-82
2023/08/02 04:33:08;;;;;;;31.07;22.50;;;;;;;-141.97;66.77;47705.53;5048164;28;20173;-83
2023/08/02 04:35:33;;;;;;;27.00;21.20;;;;;;;-141.97;66.14;47407.59;5048762;28;20185;-82
2023/08/02 04:37:58;;;;;;;30.03;20.47;;;;;;;-141.97;65.00;47680.53;5039011;28;20271;-83
2023/08/02 04:40:24;;;;;;;31.07;21.47;;;;;;;-141.97;64.11;47509.47;5044430;28;20178;-83
2023/08/02 04:42:50;;;;;;;25.50;19.27;;;;;;;-141.97;63.16;47457.56;5001057;28;20249;-83
2023/08/02 04:45:16;;;;;;;26.10;20.50;;;;;;;-141.97;62.30;47472.94;5013867;28;20258;-83
2023/08/02 04:47:41;;;;;;;26.77;19.10;;;;;;;-141.97;63.09;47449.88;5032448;28;20174;-83
2023/08/02 04:50:07;;;;;;;26.73;20.37;;;;;;;-141.97;62.98;47565.22;5048702;28;20186;-84
2023/08/02 04:52:33;;;;;;;25.67;19.73;;;;;;;-141.97;63.06;47486.41;5032475;28;20178;-83
2023/08/02 04:54:59;;;;;;;27.73;21.40;;;;;;;-141.97;62.69;47607.50;5032589;28;20170;-83
2023/08/02 04:57:24;;;;;;;30.30;21.13;;;;;;;-141.97;63.23;47348.03;5014365;28;20245;-83
2023/08/02 04:59:53;;;;;;;29.13;20.67;;;;;;;-141.97;62.52;47305.75;5014569;28;20177;-83
2023/08/02 05:02:20;;;;;;;29.63;20.83;;;;;;;-141.97;62.75;47519.06;5033941;28;20218;-83
2023/08/02 05:04:51;;;;;;;28.00;20.60;;;;;;;-141.97;62.71;47271.16;5032518;28;20173;-83
2023/08/02 05:07:16;;;;;;;27.83;21.30;;;;;;;-141.97;61.45;47474.88;5037414;28;20198;-84
2023/08/02 05:09:43;;;;;;;29.07;21.83;;;;;;;-141.97;61.77;47615.19;5054696;28;20276;-82
2023/08/02 05:12:08;;;;;;;30.73;20.30;;;;;;;-141.97;62.21;47365.31;5032101;28;20182;-83
2023/08/02 05:14:34;;;;;;;29.97;23.70;;;;;;;-141.97;61.63;47388.38;5032674;28;20236;-84
2023/08/02 05:16:59;;;;;;;27.27;20.40;;;;;;;-141.97;62.55;47357.63;5014718;28;20269;-84
2023/08/02 05:19:24;;;;;;;23.67;20.00;;;;;;;-141.97;62.16;47388.38;5024171;28;20166;-83
2023/08/02 05:21:50;;;;;;;24.30;19.37;;;;;;;-141.97;61.31;47313.44;5033932;28;20604;-83
2023/08/02 05:24:15;;;;;;;28.40;19.00;;;;;;;-141.97;60.58;47303.81;5014165;28;20605;-83
2023/08/02 05:26:41;;;;;;;26.97;19.43;;;;;;;-141.97;60.89;47603.66;5032226;28;20228;-82
2023/08/02 05:29:06;;;;;;;30.70;19.07;;;;;;;-141.97;60.18;47321.13;5032226;28;20198;-83
2023/08/02 05:31:31;;;;;;;22.73;17.40;;;;;;;-141.97;58.98;47334.56;5032622;28;20269;-83
2023/08/02 05:33:57;;;;;;;21.57;16.90;;;;;;;-141.97;58.38;47390.31;5035119;28;20181;-84
2023/08/02 05:36:22;;;;;;;23.83;19.13;;;;;;;-141.97;58.78;47396.06;5048875;28;20178;-81
2023/08/02 05:38:50;;;;;;;34.00;28.10;;;;;;;-141.97;57.69;47380.69;5071771;28;20576;-85
2023/08/02 05:41:16;;;;;;;17.93;13.77;;;;;;;-141.97;59.51;47305.75;5038265;28;20775;-85
2023/08/02 05:43:44;;;;;;;18.60;13.63;;;;;;;-141.97;59.64;47236.56;5071611;28;20165;-83
2023/08/02 05:46:10;;;;;;;17.97;13.30;;;;;;;-141.97;57.79;47403.75;5044313;28;20228;-85
2023/08/02 05:48:35;;;;;;;15.83;13.63;;;;;;;-141.97;55.53;47348.03;5056105;28;20187;-85
2023/08/02 05:51:01;;;;;;;17.53;14.80;;;;;;;-141.97;53.85;47626.72;5052336;28;20300;-83
2023/08/02 05:53:26;;;;;;;16.77;14.87;;;;;;;-141.97;53.46;47413.38;5052970;28;20589;-86
2023/08/02 05:55:51;;;;;;;19.30;15.50;;;;;;;-141.97;52.70;47361.47;5051956;28;20243;-83
2023/08/02 05:58:17;;;;;;;16.97;14.90;;;;;;;-141.97;51.97;47301.91;5066292;28;20174;-83
2023/08/02 06:00:42;;;;;;;16.83;15.03;;;;;;;-141.97;52.39;47480.63;5051429;28;20196;-83
2023/08/02 06:03:08;;;;;;;15.75;14.13;;;;;;;-141.97;51.85;47422.97;5033514;28;20249;-84
2023/08/02 06:05:33;;;;;;;15.80;13.23;;;;;;;-141.97;51.81;47413.38;5074491;28;20182;-83
2023/08/02 06:07:58;;;;;;;17.35;14.55;;;;;;;-141.97;51.48;47434.50;5051636;28;20184;-84
2023/08/02 06:10:24;;;;;;;18.20;15.00;;;;;;;-141.97;50.17;47392.22;5051842;28;20190;-84
2023/08/02 06:12:49;;;;;;;17.73;14.35;;;;;;;-141.97;48.99;47672.84;5033410;28;20258;-84
2023/08/02 06:15:15;;;;;;;18.25;14.57;;;;;;;-141.97;48.04;47336.50;5051715;28;20656;-84
2023/08/02 06:17:40;;;;;;;16.90;14.68;;;;;;;-141.97;46.53;47374.94;5051755;28;20173;-83
2023/08/02 06:20:07;;;;;;;16.33;13.73;;;;;;;-141.97;46.65;47638.25;5051882;28;20242;-84
2023/08/02 06:22:32;;;;;;;17.48;14.68;;;;;;;-141.97;46.59;47319.19;5033606;28;20241;-84
2023/08/02 06:24:57;;;;;;;16.50;14.23;;;;;;;-141.97;46.37;47409.53;5053164;28;20266;-85
2023/08/02 06:27:24;;;;;;;17.08;14.88;;;;;;;-141.97;46.27;47461.41;5055162;28;20175;-82
2023/08/02 06:29:50;;;;;;;16.42;14.30;;;;;;;-141.97;46.18;47100.09;5067665;28;20204;-81
2023/08/02 06:32:15;;;;;;;17.98;14.65;;;;;;;-141.97;46.17;47284.59;5055985;28;20176;-84
2023/08/02 06:34:41;;;;;;;17.92;16.02;;;;;;;-141.97;46.42;47588.28;5050755;28;20283;-83
2023/08/02 06:37:06;;;;;;;19.80;17.70;;;;;;;-141.97;47.17;47384.53;5053840;28;20255;-84
2023/08/02 06:39:32;;;;;;;20.73;18.23;;;;;;;-141.97;48.29;47269.22;5071388;28;20627;-84
2023/08/02 06:41:58;;;;;;;25.60;19.13;;;;;;;-141.97;49.60;47449.88;5071668;28;20180;-84
2023/08/02 06:44:23;;;;;;;24.73;18.38;;;;;;;-141.97;50.12;47561.38;5071183;28;20168;-84
2023/08/02 06:46:49;;;;;;;22.80;17.75;;;;;;;-141.97;50.00;47369.16;5071007;28;20621;-82
2023/08/02 06:49:14;;;;;;;22.15;18.42;;;;;;;-141.97;49.88;47346.09;5071486;28;20196;-83
2023/08/02 06:51:40;;;;;;;21.27;18.50;;;;;;;-141.97;50.35;47271.16;5073545;28;20592;-83
2023/08/02 06:54:05;;;;;;;25.83;19.48;;;;;;;-141.97;50.88;47411.44;5072888;28;20164;-86
2023/08/02 06:56:31;;;;;;;25.15;20.58;;;;;;;-141.97;52.20;47424.91;5071115;28;20170;-83
2023/08/02 06:58:56;;;;;;;21.40;19.10;;;;;;;-141.97;51.55;47428.75;5059518;28;20670;-83
2023/08/02 07:01:22;;;;;;;22.30;19.90;;;;;;;-141.97;50.90;47434.50;5071441;28;20564;-83
2023/08/02 07:03:49;;;;;;;22.67;19.92;;;;;;;-141.97;49.61;47444.13;5065100;28;20685;-83
2023/08/02 07:06:17;;;;;;;22.30;18.85;;;;;;;-141.97;47.98;47382.63;5038432;28;20175;-83
2023/08/02 07:08:44;;;;;;;24.90;19.05;;;;;;;-141.97;47.63;47411.44;5059957;28;20280;-83
2023/08/02 07:11:09;;;;;;;24.52;21.92;;;;;;;-141.97;47.83;47426.81;5050725;28;20207;-83
2023/08/02 07:13:36;;;;;;;27.15;21.27;;;;;;;-141.97;47.34;47309.59;5032503;28;20564;-83
2023/08/02 07:16:03;;;;;;;23.90;20.63;;;;;;;-141.97;47.79;47403.75;5050322;28;20195;-84
2023/08/02 07:18:28;;;;;;;24.67;19.50;;;;;;;-141.97;48.19;47407.59;5051243;28;20162;-84
2023/08/02 07:20:54;;;;;;;22.33;19.00;;;;;;;-141.97;47.82;47407.59;5050904;28;20172;-83
2023/08/02 07:23:20;;;;;;;24.08;18.02;;;;;;;-141.97;46.71;47672.84;5055084;28;20167;-86
2023/08/02 07:25:45;;;;;;;21.30;17.70;;;;;;;-141.97;46.87;47275.00;5054867;28;20193;-85
2023/08/02 07:28:11;;;;;;;18.85;16.70;;;;;;;-141.97;46.57;47238.47;5065038;28;20192;-83
2023/08/02 07:30:36;;;;;;;17.95;16.00;;;;;;;-141.97;47.04;47380.69;5051607;28;20188;-83
2023/08/02 07:33:01;;;;;;;19.23;17.10;;;;;;;-141.97;46.91;47515.22;5050187;28;20176;-82
2023/08/02 07:35:27;;;;;;;21.20;17.17;;;;;;;-141.97;45.84;47409.53;5065498;28;20220;-83
2023/08/02 07:37:52;;;;;;;21.80;17.92;;;;;;;-141.97;45.94;47363.41;5053467;28;20437;-84
2023/08/02 07:40:18;;;;;;;23.40;16.63;;;;;;;-141.97;45.33;47492.16;5072437;28;20188;-84
2023/08/02 07:42:43;;;;;;;19.75;16.38;;;;;;;-141.97;45.46;47348.03;5052732;28;20169;-83
2023/08/02 07:45:11;;;;;;;20.58;17.60;;;;;;;-141.97;46.70;47392.22;5031629;28;20575;-84
2023/08/02 07:47:37;;;;;;;19.70;16.92;;;;;;;-141.97;45.52;47382.63;5049864;28;20483;-83
2023/08/02 07:50:04;;;;;;;18.92;16.92;;;;;;;-141.97;45.32;47332.66;5049863;28;20198;-83
2023/08/02 07:52:30;;;;;;;17.60;15.38;;;;;;;-141.97;45.81;47276.91;5049449;28;20203;-83
2023/08/02 07:54:56;;;;;;;20.02;16.67;;;;;;;-141.97;44.85;47403.75;5050075;28;20194;-84
2023/08/02 07:57:27;;;;;;;19.50;16.48;;;;;;;-141.97;45.11;47353.78;5049664;28;20161;-83
2023/08/02 07:59:53;;;;;;;18.48;16.33;;;;;;;-141.97;44.68;47315.34;5049733;28;20215;-83
2023/08/02 08:02:19;;;;;;;19.90;17.20;;;;;;;-141.97;43.93;47599.81;5049886;28;20161;-82
2023/08/02 08:04:45;;;;;;;19.58;16.20;;;;;;;-141.97;45.11;47569.06;5051068;28;20632;-84
2023/08/02 08:07:10;;;;;;;20.27;17.13;;;;;;;-141.97;46.13;47388.38;5050201;28;20632;-83
2023/08/02 08:09:36;;;;;;;21.70;16.73;;;;;;;-141.97;45.15;47317.28;5067865;28;20187;-82
2023/08/02 08:12:05;;;;;;;19.60;15.88;;;;;;;-141.97;44.62;47615.19;5044759;28;20218;-83
2023/08/02 08:14:32;;;;;;;17.80;16.00;;;;;;;-141.97;44.26;47388.38;5046729;28;20177;-84
2023/08/02 08:16:58;;;;;;;19.75;15.48;;;;;;;-141.97;44.16;47248.09;5049600;28;20157;-86
2023/08/02 08:19:24;;;;;;;19.90;16.88;;;;;;;-141.97;44.15;47603.66;5049099;28;20180;-84
2023/08/02 08:21:49;;;;;;;17.63;15.82;;;;;;;-141.97;44.13;47399.91;5049414;28;20157;-84
2023/08/02 08:24:15;;;;;;;17.10;15.30;;;;;;;-141.97;43.36;47165.44;5048714;28;20234;-85
2023/08/02 08:26:40;;;;;;;16.98;15.00;;;;;;;-141.97;42.33;47324.97;5048670;28;20309;-85
2023/08/02 08:29:05;;;;;;;19.98;15.38;;;;;;;-141.97;41.49;47426.81;5049610;28;20202;-84
2023/08/02 08:31:32;;;;;;;18.55;16.52;;;;;;;-141.97;41.44;47303.81;5031257;28;20644;-84
2023/08/02 08:33:58;;;;;;;19.42;15.52;;;;;;;-141.97;41.13;47248.09;5061486;28;20178;-84
2023/08/02 08:36:23;;;;;;;17.73;15.25;;;;;;;-141.97;40.78;47228.88;5073146;28;20160;-84
2023/08/02 08:38:48;;;;;;;18.02;15.23;;;;;;;-141.97;41.47;47169.28;5054839;28;20765;-84
2023/08/02 08:41:14;;;;;;;16.50;14.80;;;;;;;-141.97;42.14;47444.13;5072878;28;20646;-84
2023/08/02 08:43:40;;;;;;;16.35;14.45;;;;;;;-141.97;42.27;47434.50;5072700;28;20309;-84
2023/08/02 08:46:06;;;;;;;16.50;14.80;;;;;;;-141.97;41.44;47330.72;5073087;28;20316;-85
2023/08/02 08:48:33;;;;;;;15.93;14.23;;;;;;;-141.97;41.34;47319.19;5088534;28;20192;-85
2023/08/02 08:51:01;;;;;;;15.82;14.27;;;;;;;-141.97;40.52;47113.56;5073223;28;20234;-85
2023/08/02 08:53:35;;;;;;;16.10;14.50;;;;;;;-141.97;40.66;47353.78;5075474;28;20233;-83
2023/08/02 08:56:03;;;;;;;16.42;14.50;;;;;;;-141.97;40.69;47221.19;5091654;28;20162;-83
2023/08/02 08:58:31;;;;;;;15.95;14.20;;;;;;;-141.97;40.39;47234.63;5094976;28;20712;-85
2023/08/02 09:00:58;;;;;;;15.25;13.50;;;;;;;-141.97;40.14;47507.53;5093748;28;20227;-85
2023/08/02 09:03:24;;;;;;;17.48;14.05;;;;;;;-141.97;39.56;47317.28;5080754;28;20632;-86
2023/08/02 09:05:50;;;;;;;16.67;14.93;;;;;;;-141.97;39.88;47334.56;5073375;28;20175;-85
2023/08/02 09:08:16;;;;;;;16.30;14.60;;;;;;;-141.97;40.00;47221.19;5073127;28;20172;-85
2023/08/02 09:10:42;;;;;;;16.58;14.70;;;;;;;-141.97;41.13;47273.06;5075714;28;20191;-85
2023/08/02 09:13:26;;;;;;;16.10;14.35;;;;;;;-141.97;41.17;47346.09;5074529;28;20167;-85
2023/08/02 09:16:04;;;;;;;16.88;13.75;;;;;;;-141.97;39.89;47332.66;5041870;28;20239;-84
2023/08/02 09:18:36;;;;;;;15.45;13.85;;;;;;;-141.97;39.88;47269.22;5067778;28;20256;-85
2023/08/02 09:21:03;;;;;;;16.45;14.75;;;;;;;-141.97;40.07;47309.59;5052013;28;20237;-84
2023/08/02 09:23:28;;;;;;;16.00;13.60;;;;;;;-141.97;40.15;47275.00;5052218;28;20165;-84
2023/08/02 09:26:13;;;;;;;15.52;13.88;;;;;;;-141.97;39.54;47221.19;5040593;28;20180;-85
2023/08/02 09:28:38;;;;;;;15.55;13.88;;;;;;;-141.97;38.73;47275.00;5072099;28;20268;-84
2023/08/02 09:31:14;;;;;;;14.80;13.15;;;;;;;-141.97;38.88;47273.06;5072013;28;20220;-84
2023/08/02 09:33:51;;;;;;;15.55;13.35;;;;;;;-141.97;38.98;47305.75;5039313;28;20173;-84
2023/08/02 09:36:27;;;;;;;16.98;13.30;;;;;;;-141.97;38.83;47228.88;5060779;28;20180;-84
2023/08/02 09:39:16;;;;;;;15.13;13.30;;;;;;;-141.97;38.66;47299.97;5053690;28;20656;-84
2023/08/02 09:41:42;;;;;;;14.52;12.93;;;;;;;-141.97;38.19;47275.00;5087579;28;20673;-84
2023/08/02 09:44:08;;;;;;;14.07;12.68;;;;;;;-141.97;38.24;47230.78;5072479;28;20199;-84
2023/08/02 09:46:35;;;;;;;15.40;13.40;;;;;;;-141.97;37.36;47311.50;5060885;28;20189;-85
2023/08/02 09:49:15;;;;;;;15.35;13.13;;;;;;;-141.97;37.20;47292.28;5051678;28;20185;-84
2023/08/02 09:51:43;;;;;;;14.35;12.88;;;;;;;-141.97;37.67;47257.69;5054499;28;20547;-85
2023/08/02 09:54:10;;;;;;;14.55;13.05;;;;;;;-141.97;37.86;47353.78;5051879;28;20719;-86
2023/08/02 09:56:37;;;;;;;14.25;12.95;;;;;;;-141.97;37.41;47240.41;5051734;28;20169;-85
2023/08/02 09:59:04;;;;;;;14.95;13.43;;;;;;;-141.97;37.28;47288.44;5065056;28;20546;-83
2023/08/02 10:01:31;;;;;;;14.98;13.45;;;;;;;-141.97;37.46;47344.19;5071146;28;20169;-85
2023/08/02 10:04:04;;;;;;;14.52;13.13;;;;;;;-141.97;37.53;47303.81;5071064;28;20175;-83
2023/08/02 10:06:55;;;;;;;16.25;13.93;;;;;;;-141.97;37.67;47290.38;5051814;28;20234;-83
2023/08/02 10:09:25;;;;;;;16.75;13.70;;;;;;;-141.97;37.34;47259.63;5066131;28;20211;-83
2023/08/02 10:11:57;;;;;;;15.65;12.95;;;;;;;-141.97;36.96;47288.44;5071032;28;20199;-83
2023/08/02 10:14:23;;;;;;;14.90;13.40;;;;;;;-141.97;36.73;47225.03;5071303;28;20598;-84
2023/08/02 10:16:50;;;;;;;15.65;13.15;;;;;;;-141.97;36.22;47349.94;5070882;28;20168;-85
2023/08/02 10:19:17;;;;;;;14.15;12.75;;;;;;;-141.97;36.14;47092.41;5070982;28;20192;-84
2023/08/02 10:21:44;;;;;;;15.68;13.43;;;;;;;-141.97;35.83;47242.31;5071221;28;20540;-83
2023/08/02 10:24:13;;;;;;;13.85;12.35;;;;;;;-141.97;35.47;47236.56;5071416;28;20171;-83
2023/08/02 10:26:39;;;;;;;14.27;12.38;;;;;;;-141.97;35.60;47186.59;5071362;28;20172;-82
2023/08/02 10:29:07;;;;;;;13.60;12.25;;;;;;;-141.97;35.85;47361.47;5071147;28;20165;-83
2023/08/02 10:31:33;;;;;;;14.05;12.02;;;;;;;-141.97;36.24;47150.06;5042533;28;20232;-84
2023/08/02 10:33:59;;;;;;;13.48;12.07;;;;;;;-141.97;35.65;47146.22;5034360;28;20181;-84
2023/08/02 10:36:24;;;;;;;12.77;11.48;;;;;;;-141.97;35.43;47184.66;5050571;28;20166;-83
2023/08/02 10:38:55;;;;;;;12.32;11.10;;;;;;;-141.97;34.76;47213.50;5033707;28;20221;-82
2023/08/02 10:41:20;;;;;;;11.73;10.55;;;;;;;-141.97;35.31;47250.00;5031778;28;20192;-82
2023/08/02 10:43:52;;;;;;;13.52;11.52;;;;;;;-141.97;34.89;47248.09;5050718;28;20170;-83
2023/08/02 10:46:26;;;;;;;13.40;12.10;;;;;;;-141.97;34.38;47344.19;5050197;28;20189;-82
2023/08/02 10:49:15;;;;;;;12.85;11.38;;;;;;;-141.97;35.40;47250.00;5025140;28;20233;-83
2023/08/02 10:51:42;;;;;;;13.73;12.38;;;;;;;-141.97;36.39;47176.97;5030743;28;20204;-82
2023/08/02 10:54:25;;;;;;;12.55;11.35;;;;;;;-141.97;36.53;47298.06;5030832;28;20227;-82
2023/08/02 10:56:51;;;;;;;12.13;10.93;;;;;;;-141.97;35.29;47246.16;5046353;28;20180;-82
2023/08/02 10:59:36;;;;;;;12.68;11.38;;;;;;;-141.97;35.52;47292.28;5049695;28;20176;-83